sensor_id;sensor_type;location;lat;lon;timestamp;pressure;altitude;pressure_sealevel;temperature;humidity
43436;BME280;36399;51.444;-2.018;2023-07-22T00:00:52;101022.34;;;11.90;100.00
43436;BME280;36399;51.444;-2.018;2023-07-22T00:03:18;101027.59;;;11.90;100.00
43436;BME280;36399;51.444;-2.018;2023-07-22T00:05:44;101024.09;;;11.89;100.00
43436;BME280;36399;51.444;-2.018;2023-07-22T00:08:10;101024.94;;;11.88;100.00
43436;BME280;36399;51.444;-2.018;2023-07-22T00:10:40;101034.56;;;11.86;100.00
43436;BME280;36399;51.444;-2.018;2023-07-22T00:13:06;101035.53;;;11.91;100.00
43436;BME280;36399;51.444;-2.018;2023-07-22T00:15:33;101038.34;;;12.00;100.00
43436;BME280;36399;51.444;-2.018;2023-07-22T00:17:59;101042.84;;;12.08;100.00
43436;BME280;36399;51.444;-2.018;2023-07-22T00:20:25;101039.38;;;12.12;100.00
43436;BME280;36399;51.444;-2.018;2023-07-22T00:22:52;101036.81;;;12.15;100.00
43436;BME280;36399;51.444;-2.018;2023-07-22T00:25:18;101034.25;;;12.21;100.00
43436;BME280;36399;51.444;-2.018;2023-07-22T00:27:44;101035.13;;;12.20;100.00
43436;BME280;36399;51.444;-2.018;2023-07-22T00:30:10;101030.94;;;12.34;100.00
43436;BME280;36399;51.444;-2.018;2023-07-22T00:32:36;101018.69;;;12.36;100.00
43436;BME280;36399;51.444;-2.018;2023-07-22T00:35:07;101015.16;;;12.36;100.00
43436;BME280;36399;51.444;-2.018;2023-07-22T00:37:33;101012.59;;;12.40;100.00
43436;BME280;36399;51.444;-2.018;2023-07-22T00:39:59;100998.72;;;12.49;100.00
43436;BME280;36399;51.444;-2.018;2023-07-22T00:42:24;100997.78;;;12.47;100.00
43436;BME280;36399;51.444;-2.018;2023-07-22T00:44:51;100989.88;;;12.48;100.00
43436;BME280;36399;51.444;-2.018;2023-07-22T00:47:17;100988.13;;;12.47;100.00
43436;BME280;36399;51.444;-2.018;2023-07-22T00:49:43;100983.91;;;12.58;100.00
43436;BME280;36399;51.444;-2.018;2023-07-22T00:52:10;100985.75;;;12.66;100.00
43436;BME280;36399;51.444;-2.018;2023-07-22T00:54:36;100969.00;;;12.60;100.00
43436;BME280;36399;51.444;-2.018;2023-07-22T00:57:02;100967.31;;;12.66;100.00
43436;BME280;36399;51.444;-2.018;2023-07-22T00:59:28;100964.63;;;12.62;100.00
43436;BME280;36399;51.444;-2.018;2023-07-22T01:01:54;100958.56;;;12.70;100.00
43436;BME280;36399;51.444;-2.018;2023-07-22T01:04:20;100958.63;;;12.73;100.00
43436;BME280;36399;51.444;-2.018;2023-07-22T01:06:49;100950.91;;;12.89;100.00
43436;BME280;36399;51.444;-2.018;2023-07-22T01:09:15;100937.75;;;12.94;100.00
43436;BME280;36399;51.444;-2.018;2023-07-22T01:11:41;100927.28;;;13.00;100.00
43436;BME280;36399;51.444;-2.018;2023-07-22T01:14:07;100916.75;;;13.00;100.00
43436;BME280;36399;51.444;-2.018;2023-07-22T01:16:33;100904.38;;;12.93;100.00
43436;BME280;36399;51.444;-2.018;2023-07-22T01:19:00;100900.84;;;12.91;100.00
43436;BME280;36399;51.444;-2.018;2023-07-22T01:21:26;100886.72;;;12.83;100.00
43436;BME280;36399;51.444;-2.018;2023-07-22T01:23:53;100893.69;;;12.78;100.00
43436;BME280;36399;51.444;-2.018;2023-07-22T01:26:20;100893.75;;;12.84;100.00
43436;BME280;36399;51.444;-2.018;2023-07-22T01:28:45;100891.97;;;12.83;100.00
43436;BME280;36399;51.444;-2.018;2023-07-22T01:31:11;100892.88;;;12.83;100.00
43436;BME280;36399;51.444;-2.018;2023-07-22T01:33:37;100897.16;;;12.74;100.00
43436;BME280;36399;51.444;-2.018;2023-07-22T01:36:03;100898.78;;;12.62;100.00
43436;BME280;36399;51.444;-2.018;2023-07-22T01:38:29;100898.69;;;12.53;100.00
43436;BME280;36399;51.444;-2.018;2023-07-22T01:40:56;100905.63;;;12.48;100.00
43436;BME280;36399;51.444;-2.018;2023-07-22T01:43:22;100917.06;;;12.49;100.00
43436;BME280;36399;51.444;-2.018;2023-07-22T01:45:48;100908.16;;;12.41;100.00
43436;BME280;36399;51.444;-2.018;2023-07-22T01:48:14;100915.06;;;12.31;100.00
43436;BME280;36399;51.444;-2.018;2023-07-22T01:50:40;100917.69;;;12.31;100.00
43436;BME280;36399;51.444;-2.018;2023-07-22T01:53:06;100924.69;;;12.29;100.00
43436;BME280;36399;51.444;-2.018;2023-07-22T01:55:33;100924.72;;;12.30;100.00
43436;BME280;36399;51.444;-2.018;2023-07-22T01:58:00;100929.97;;;12.29;100.00
43436;BME280;36399;51.444;-2.018;2023-07-22T02:00:27;100926.47;;;12.30;100.00
43436;BME280;36399;51.444;-2.018;2023-07-22T02:02:53;100926.50;;;12.33;100.00
43436;BME280;36399;51.444;-2.018;2023-07-22T02:05:18;100922.16;;;12.37;100.00
43436;BME280;36399;51.444;-2.018;2023-07-22T02:07:44;100916.09;;;12.42;100.00
43436;BME280;36399;51.444;-2.018;2023-07-22T02:10:10;100914.47;;;12.50;100.00
43436;BME280;36399;51.444;-2.018;2023-07-22T02:12:36;100906.59;;;12.55;100.00
43436;BME280;36399;51.444;-2.018;2023-07-22T02:15:02;100900.34;;;12.48;100.00
43436;BME280;36399;51.444;-2.018;2023-07-22T02:17:28;100901.19;;;12.46;100.00
43436;BME280;36399;51.444;-2.018;2023-07-22T02:19:56;100907.28;;;12.40;100.00
43436;BME280;36399;51.444;-2.018;2023-07-22T02:22:22;100907.28;;;12.42;100.00
43436;BME280;36399;51.444;-2.018;2023-07-22T02:24:48;100894.13;;;12.42;100.00
43436;BME280;36399;51.444;-2.018;2023-07-22T02:27:14;100897.72;;;12.48;100.00
43436;BME280;36399;51.444;-2.018;2023-07-22T02:29:40;100889.00;;;12.51;100.00
43436;BME280;36399;51.444;-2.018;2023-07-22T02:32:06;100884.53;;;12.45;100.00
43436;BME280;36399;51.444;-2.018;2023-07-22T02:34:32;100881.91;;;12.48;100.00
43436;BME280;36399;51.444;-2.018;2023-07-22T02:36:58;100880.13;;;12.46;100.00
43436;BME280;36399;51.444;-2.018;2023-07-22T02:39:24;100875.72;;;12.43;100.00
43436;BME280;36399;51.444;-2.018;2023-07-22T02:41:50;100873.06;;;12.40;100.00
43436;BME280;36399;51.444;-2.018;2023-07-22T02:44:16;100878.38;;;12.46;100.00
43436;BME280;36399;51.444;-2.018;2023-07-22T02:46:42;100876.50;;;12.36;100.00
43436;BME280;36399;51.444;-2.018;2023-07-22T02:49:08;100872.13;;;12.37;100.00
43436;BME280;36399;51.444;-2.018;2023-07-22T02:51:34;100871.22;;;12.35;100.00
43436;BME280;36399;51.444;-2.018;2023-07-22T02:53:59;100876.47;;;12.31;100.00
43436;BME280;36399;51.444;-2.018;2023-07-22T02:56:25;100876.50;;;12.36;100.00
43436;BME280;36399;51.444;-2.018;2023-07-22T02:58:51;100875.63;;;12.34;100.00
43436;BME280;36399;51.444;-2.018;2023-07-22T03:01:17;100877.44;;;12.41;100.00
43436;BME280;36399;51.444;-2.018;2023-07-22T03:03:44;100872.13;;;12.35;100.00
43436;BME280;36399;51.444;-2.018;2023-07-22T03:06:10;100868.66;;;12.39;100.00
43436;BME280;36399;51.444;-2.018;2023-07-22T03:08:36;100861.56;;;12.33;100.00
43436;BME280;36399;51.444;-2.018;2023-07-22T03:11:02;100875.63;;;12.34;100.00
43436;BME280;36399;51.444;-2.018;2023-07-22T03:13:29;100869.53;;;12.38;100.00
43436;BME280;36399;51.444;-2.018;2023-07-22T03:15:56;100856.41;;;12.44;100.00
43436;BME280;36399;51.444;-2.018;2023-07-22T03:18:22;100858.13;;;12.39;100.00
43436;BME280;36399;51.444;-2.018;2023-07-22T03:20:48;100855.44;;;12.35;100.00
43436;BME280;36399;51.444;-2.018;2023-07-22T03:23:14;100853.63;;;12.30;100.00
43436;BME280;36399;51.444;-2.018;2023-07-22T03:25:40;100853.66;;;12.32;100.00
43436;BME280;36399;51.444;-2.018;2023-07-22T03:28:07;100851.00;;;12.32;100.00
43436;BME280;36399;51.444;-2.018;2023-07-22T03:30:33;100847.50;;;12.31;100.00
43436;BME280;36399;51.444;-2.018;2023-07-22T03:32:59;100850.03;;;12.24;100.00
43436;BME280;36399;51.444;-2.018;2023-07-22T03:35:26;100850.00;;;12.21;100.00
43436;BME280;36399;51.444;-2.018;2023-07-22T03:37:53;100856.06;;;12.14;100.00
43436;BME280;36399;51.444;-2.018;2023-07-22T03:40:19;100856.03;;;12.11;100.00
43436;BME280;36399;51.444;-2.018;2023-07-22T03:42:50;100859.59;;;12.16;100.00
43436;BME280;36399;51.444;-2.018;2023-07-22T03:45:20;100850.75;;;12.11;100.00
43436;BME280;36399;51.444;-2.018;2023-07-22T03:47:50;100856.94;;;12.14;100.00
43436;BME280;36399;51.444;-2.018;2023-07-22T03:50:16;100869.97;;;12.04;100.00
43436;BME280;36399;51.444;-2.018;2023-07-22T03:52:42;100867.34;;;12.04;100.00
43436;BME280;36399;51.444;-2.018;2023-07-22T03:55:08;100865.56;;;12.01;100.00
43436;BME280;36399;51.444;-2.018;2023-07-22T03:57:34;100866.44;;;12.02;100.00
43436;BME280;36399;51.444;-2.018;2023-07-22T04:00:00;100865.66;;;12.10;100.00
43436;BME280;36399;51.444;-2.018;2023-07-22T04:02:26;100865.59;;;12.06;100.00
43436;BME280;36399;51.444;-2.018;2023-07-22T04:04:54;100870.00;;;12.05;100.00
43436;BME280;36399;51.444;-2.018;2023-07-22T04:07:20;100862.13;;;12.08;100.00
43436;BME280;36399;51.444;-2.018;2023-07-22T04:09:47;100859.44;;;12.04;100.00
43436;BME280;36399;51.444;-2.018;2023-07-22T04:12:13;100864.72;;;12.05;100.00
43436;BME280;36399;51.444;-2.018;2023-07-22T04:14:39;100862.13;;;12.07;100.00
43436;BME280;36399;51.444;-2.018;2023-07-22T04:17:06;100853.44;;;12.15;100.00
43436;BME280;36399;51.444;-2.018;2023-07-22T04:19:32;100852.53;;;12.12;100.00
43436;BME280;36399;51.444;-2.018;2023-07-22T04:21:58;100861.28;;;12.11;100.00
43436;BME280;36399;51.444;-2.018;2023-07-22T04:24:24;100854.28;;;12.13;100.00
43436;BME280;36399;51.444;-2.018;2023-07-22T04:26:53;100852.56;;;12.15;100.00
43436;BME280;36399;51.444;-2.018;2023-07-22T04:29:19;100857.84;;;12.15;100.00
43436;BME280;36399;51.444;-2.018;2023-07-22T04:31:45;100859.59;;;12.16;100.00
43436;BME280;36399;51.444;-2.018;2023-07-22T04:34:11;100842.97;;;12.18;100.00
43436;BME280;36399;51.444;-2.018;2023-07-22T04:36:38;100841.25;;;12.22;100.00
43436;BME280;36399;51.444;-2.018;2023-07-22T04:39:04;100837.72;;;12.20;100.00
43436;BME280;36399;51.444;-2.018;2023-07-22T04:41:33;100833.41;;;12.28;100.00
43436;BME280;36399;51.444;-2.018;2023-07-22T04:43:59;100822.03;;;12.29;100.00
43436;BME280;36399;51.444;-2.018;2023-07-22T04:46:25;100820.28;;;12.31;100.00
43436;BME280;36399;51.444;-2.018;2023-07-22T04:48:55;100810.69;;;12.36;100.00
43436;BME280;36399;51.444;-2.018;2023-07-22T04:51:22;100819.44;;;12.32;100.00
43436;BME280;36399;51.444;-2.018;2023-07-22T04:53:47;100816.72;;;12.24;100.00
43436;BME280;36399;51.444;-2.018;2023-07-22T04:56:13;100825.50;;;12.25;100.00
43436;BME280;36399;51.444;-2.018;2023-07-22T04:58:39;100824.63;;;12.27;100.00
43436;BME280;36399;51.444;-2.018;2023-07-22T05:01:05;100824.63;;;12.26;100.00
43436;BME280;36399;51.444;-2.018;2023-07-22T05:03:31;100836.91;;;12.27;100.00
43436;BME280;36399;51.444;-2.018;2023-07-22T05:05:57;100834.34;;;12.31;100.00
43436;BME280;36399;51.444;-2.018;2023-07-22T05:08:24;100834.31;;;12.30;100.00
43436;BME280;36399;51.444;-2.018;2023-07-22T05:10:49;100830.81;;;12.29;100.00
43436;BME280;36399;51.444;-2.018;2023-07-22T05:13:15;100833.50;;;12.36;100.00
43436;BME280;36399;51.444;-2.018;2023-07-22T05:15:42;100837.91;;;12.37;100.00
43436;BME280;36399;51.444;-2.018;2023-07-22T05:18:08;100843.06;;;12.27;100.00
43436;BME280;36399;51.444;-2.018;2023-07-22T05:20:34;100833.50;;;12.34;100.00
43436;BME280;36399;51.444;-2.018;2023-07-22T05:23:00;100831.69;;;12.30;100.00
43436;BME280;36399;51.444;-2.018;2023-07-22T05:25:26;100830.00;;;12.35;100.00
43436;BME280;36399;51.444;-2.018;2023-07-22T05:27:52;100832.66;;;12.38;100.00
43436;BME280;36399;51.444;-2.018;2023-07-22T05:30:18;100834.38;;;12.36;100.00
43436;BME280;36399;51.444;-2.018;2023-07-22T05:32:43;100826.56;;;12.42;100.00
43436;BME280;36399;51.444;-2.018;2023-07-22T05:35:09;100825.69;;;12.42;100.00
43436;BME280;36399;51.444;-2.018;2023-07-22T05:37:35;100825.72;;;12.46;100.00
43436;BME280;36399;51.444;-2.018;2023-07-22T05:40:01;100828.41;;;12.49;100.00
43436;BME280;36399;51.444;-2.018;2023-07-22T05:42:28;100817.91;;;12.52;100.00
43436;BME280;36399;51.444;-2.018;2023-07-22T05:44:54;100817.06;;;12.55;100.00
43436;BME280;36399;51.444;-2.018;2023-07-22T05:47:22;100818.06;;;12.68;100.00
43436;BME280;36399;51.444;-2.018;2023-07-22T05:49:48;100811.03;;;12.67;100.00
43436;BME280;36399;51.444;-2.018;2023-07-22T05:52:14;100805.00;;;12.80;100.00
43436;BME280;36399;51.444;-2.018;2023-07-22T05:54:40;100805.97;;;12.89;100.00
43436;BME280;36399;51.444;-2.018;2023-07-22T05:57:06;100799.88;;;12.98;100.00
43436;BME280;36399;51.444;-2.018;2023-07-22T05:59:32;100794.69;;;13.04;100.00
43436;BME280;36399;51.444;-2.018;2023-07-22T06:01:58;100790.38;;;13.12;100.00
43436;BME280;36399;51.444;-2.018;2023-07-22T06:04:24;100779.81;;;13.12;100.00
43436;BME280;36399;51.444;-2.018;2023-07-22T06:06:50;100784.19;;;13.10;100.00
43436;BME280;36399;51.444;-2.018;2023-07-22T06:09:15;100779.03;;;13.18;100.00
43436;BME280;36399;51.444;-2.018;2023-07-22T06:11:42;100775.50;;;13.19;100.00
43436;BME280;36399;51.444;-2.018;2023-07-22T06:14:08;100762.41;;;13.31;100.00
43436;BME280;36399;51.444;-2.018;2023-07-22T06:16:34;100758.97;;;13.43;100.00
43436;BME280;36399;51.444;-2.018;2023-07-22T06:18:59;100759.06;;;13.58;100.00
43436;BME280;36399;51.444;-2.018;2023-07-22T06:21:25;100731.00;;;13.72;100.00
43436;BME280;36399;51.444;-2.018;2023-07-22T06:23:51;100715.16;;;13.75;100.00
43436;BME280;36399;51.444;-2.018;2023-07-22T06:26:17;100694.09;;;13.81;100.00
43436;BME280;36399;51.444;-2.018;2023-07-22T06:28:43;100695.88;;;13.92;100.00
43436;BME280;36399;51.444;-2.018;2023-07-22T06:31:09;100674.81;;;14.10;100.00
43436;BME280;36399;51.444;-2.018;2023-07-22T06:33:35;100661.63;;;14.07;100.00
43436;BME280;36399;51.444;-2.018;2023-07-22T06:36:01;100650.19;;;14.17;100.00
43436;BME280;36399;51.444;-2.018;2023-07-22T06:38:27;100633.50;;;14.42;100.00
43436;BME280;36399;51.444;-2.018;2023-07-22T06:40:54;100614.97;;;14.39;100.00
43436;BME280;36399;51.444;-2.018;2023-07-22T06:43:20;100607.94;;;14.35;100.00
43436;BME280;36399;51.444;-2.018;2023-07-22T06:45:47;100609.72;;;14.42;100.00
43436;BME280;36399;51.444;-2.018;2023-07-22T06:48:13;100595.63;;;14.49;100.00
43436;BME280;36399;51.444;-2.018;2023-07-22T06:50:39;100576.25;;;14.50;100.00
43436;BME280;36399;51.444;-2.018;2023-07-22T06:53:05;100583.31;;;14.58;100.00
43436;BME280;36399;51.444;-2.018;2023-07-22T06:55:31;100560.41;;;14.67;100.00
43436;BME280;36399;51.444;-2.018;2023-07-22T06:57:57;100551.56;;;14.73;100.00
43436;BME280;36399;51.444;-2.018;2023-07-22T07:00:23;100532.16;;;14.80;100.00
43436;BME280;36399;51.444;-2.018;2023-07-22T07:02:49;100526.84;;;14.88;100.00
43436;BME280;36399;51.444;-2.018;2023-07-22T07:05:15;100531.31;;;14.76;100.00
43436;BME280;36399;51.444;-2.018;2023-07-22T07:07:42;100516.31;;;14.77;100.00
43436;BME280;36399;51.444;-2.018;2023-07-22T07:10:09;100524.19;;;14.92;100.00
43436;BME280;36399;51.444;-2.018;2023-07-22T07:12:35;100525.00;;;15.06;100.00
43436;BME280;36399;51.444;-2.018;2023-07-22T07:15:01;100498.47;;;15.28;100.00
43436;BME280;36399;51.444;-2.018;2023-07-22T07:17:27;100493.94;;;15.46;100.00
43436;BME280;36399;51.444;-2.018;2023-07-22T07:19:53;100485.97;;;15.51;100.00
43436;BME280;36399;51.444;-2.018;2023-07-22T07:22:19;100463.91;;;15.51;100.00
43436;BME280;36399;51.444;-2.018;2023-07-22T07:24:45;100475.34;;;15.60;100.00
43436;BME280;36399;51.444;-2.018;2023-07-22T07:27:11;100474.50;;;15.61;100.00
43436;BME280;36399;51.444;-2.018;2023-07-22T07:29:37;100463.00;;;15.65;100.00
43436;BME280;36399;51.444;-2.018;2023-07-22T07:32:05;100466.56;;;15.61;100.00
43436;BME280;36399;51.444;-2.018;2023-07-22T07:34:31;100461.22;;;15.64;100.00
43436;BME280;36399;51.444;-2.018;2023-07-22T07:36:57;100456.81;;;15.60;100.00
43436;BME280;36399;51.444;-2.018;2023-07-22T07:39:22;100452.53;;;15.39;100.00
43436;BME280;36399;51.444;-2.018;2023-07-22T07:41:48;100464.03;;;15.35;100.00
43436;BME280;36399;51.444;-2.018;2023-07-22T07:44:14;100467.44;;;15.51;100.00
43436;BME280;36399;51.444;-2.018;2023-07-22T07:46:40;100455.97;;;15.52;100.00
43436;BME280;36399;51.444;-2.018;2023-07-22T07:49:06;100454.25;;;15.48;100.00
43436;BME280;36399;51.444;-2.018;2023-07-22T07:51:32;100444.41;;;15.71;100.00
43436;BME280;36399;51.444;-2.018;2023-07-22T07:53:59;100448.00;;;15.63;100.00
43436;BME280;36399;51.444;-2.018;2023-07-22T07:56:25;100449.78;;;15.61;100.00
43436;BME280;36399;51.444;-2.018;2023-07-22T07:58:53;100453.16;;;15.78;100.00
43436;BME280;36399;51.444;-2.018;2023-07-22T08:01:19;100436.38;;;15.82;100.00
43436;BME280;36399;51.444;-2.018;2023-07-22T08:03:45;100431.94;;;15.84;100.00
43436;BME280;36399;51.444;-2.018;2023-07-22T08:06:12;100439.00;;;15.84;100.00
43436;BME280;36399;51.444;-2.018;2023-07-22T08:08:39;100432.78;;;15.88;100.00
43436;BME280;36399;51.444;-2.018;2023-07-22T08:13:35;100422.84;;;16.09;100.00
43436;BME280;36399;51.444;-2.018;2023-07-22T08:16:02;100418.66;;;15.89;100.00
43436;BME280;36399;51.444;-2.018;2023-07-22T08:18:30;100425.78;;;15.82;100.00
43436;BME280;36399;51.444;-2.018;2023-07-22T08:20:56;100431.84;;;15.93;100.00
43436;BME280;36399;51.444;-2.018;2023-07-22T08:23:23;100426.59;;;15.89;100.00
43436;BME280;36399;51.444;-2.018;2023-07-22T08:25:49;100424.69;;;16.03;100.00
43436;BME280;36399;51.444;-2.018;2023-07-22T08:28:15;100415.19;;;15.84;100.00
43436;BME280;36399;51.444;-2.018;2023-07-22T08:30:41;100413.34;;;15.92;100.00
43436;BME280;36399;51.444;-2.018;2023-07-22T08:33:09;100421.31;;;15.89;100.00
43436;BME280;36399;51.444;-2.018;2023-07-22T08:35:35;100417.84;;;15.82;100.00
43436;BME280;36399;51.444;-2.018;2023-07-22T08:38:02;100415.25;;;15.77;100.00
43436;BME280;36399;51.444;-2.018;2023-07-22T08:40:35;100424.97;;;15.75;100.00
43436;BME280;36399;51.444;-2.018;2023-07-22T08:43:03;100417.97;;;15.67;100.00
43436;BME280;36399;51.444;-2.018;2023-07-22T08:45:32;100447.16;;;15.53;100.00
43436;BME280;36399;51.444;-2.018;2023-07-22T08:48:02;100445.38;;;15.52;100.00
43436;BME280;36399;51.444;-2.018;2023-07-22T08:50:34;100425.06;;;15.57;100.00
43436;BME280;36399;51.444;-2.018;2023-07-22T08:53:01;100456.97;;;15.36;100.00
43436;BME280;36399;51.444;-2.018;2023-07-22T08:55:27;100471.09;;;15.33;100.00
43436;BME280;36399;51.444;-2.018;2023-07-22T08:57:53;100475.53;;;15.30;100.00
43436;BME280;36399;51.444;-2.018;2023-07-22T09:00:21;100482.63;;;15.26;100.00
43436;BME280;36399;51.444;-2.018;2023-07-22T09:02:48;100490.63;;;15.12;100.00
43436;BME280;36399;51.444;-2.018;2023-07-22T09:05:14;100516.19;;;15.07;100.00
43436;BME280;36399;51.444;-2.018;2023-07-22T09:07:40;100518.84;;;15.04;100.00
43436;BME280;36399;51.444;-2.018;2023-07-22T09:10:08;100521.53;;;14.92;100.00
43436;BME280;36399;51.444;-2.018;2023-07-22T09:12:35;100517.19;;;14.80;100.00
43436;BME280;36399;51.444;-2.018;2023-07-22T09:15:09;100552.47;;;14.70;100.00
43436;BME280;36399;51.444;-2.018;2023-07-22T09:17:36;100563.03;;;14.52;100.00
43436;BME280;36399;51.444;-2.018;2023-07-22T09:20:02;100592.09;;;14.38;100.00
43436;BME280;36399;51.444;-2.018;2023-07-22T09:22:29;100608.81;;;14.27;100.00
43436;BME280;36399;51.444;-2.018;2023-07-22T09:25:16;100629.06;;;14.09;100.00
43436;BME280;36399;51.444;-2.018;2023-07-22T09:27:43;100643.09;;;13.99;100.00
43436;BME280;36399;51.444;-2.018;2023-07-22T09:30:22;100663.31;;;13.93;100.00
43436;BME280;36399;51.444;-2.018;2023-07-22T09:32:49;100680.94;;;14.00;100.00
43436;BME280;36399;51.444;-2.018;2023-07-22T09:35:15;100687.97;;;13.99;100.00
43436;BME280;36399;51.444;-2.018;2023-07-22T09:37:41;100696.78;;;14.03;100.00
43436;BME280;36399;51.444;-2.018;2023-07-22T09:40:14;100703.81;;;14.04;100.00
43436;BME280;36399;51.444;-2.018;2023-07-22T09:42:55;100709.97;;;14.03;100.00
43436;BME280;36399;51.444;-2.018;2023-07-22T09:45:24;100708.19;;;13.96;100.00
43436;BME280;36399;51.444;-2.018;2023-07-22T09:47:52;100713.47;;;13.89;100.00
43436;BME280;36399;51.444;-2.018;2023-07-22T09:50:20;100716.97;;;13.92;100.00
43436;BME280;36399;51.444;-2.018;2023-07-22T09:52:51;100719.63;;;13.93;100.00
43436;BME280;36399;51.444;-2.018;2023-07-22T09:55:22;100732.81;;;13.88;100.00
43436;BME280;36399;51.444;-2.018;2023-07-22T10:00:24;100726.66;;;13.88;100.00
43436;BME280;36399;51.444;-2.018;2023-07-22T10:02:52;100740.72;;;13.84;100.00
43436;BME280;36399;51.444;-2.018;2023-07-22T10:05:19;100742.50;;;13.89;100.00
43436;BME280;36399;51.444;-2.018;2023-07-22T10:07:49;100752.16;;;13.84;100.00
43436;BME280;36399;51.444;-2.018;2023-07-22T10:10:17;100749.53;;;13.92;100.00
43436;BME280;36399;51.444;-2.018;2023-07-22T10:12:44;100753.91;;;13.88;100.00
43436;BME280;36399;51.444;-2.018;2023-07-22T10:15:12;100753.06;;;13.94;100.00
43436;BME280;36399;51.444;-2.018;2023-07-22T10:17:42;100754.00;;;14.07;100.00
43436;BME280;36399;51.444;-2.018;2023-07-22T10:20:09;100760.09;;;13.98;100.00
43436;BME280;36399;51.444;-2.018;2023-07-22T10:22:43;100766.25;;;13.96;100.00
43436;BME280;36399;51.444;-2.018;2023-07-22T10:25:11;100770.66;;;13.95;100.00
43436;BME280;36399;51.444;-2.018;2023-07-22T10:27:39;100768.03;;;14.03;100.00
43436;BME280;36399;51.444;-2.018;2023-07-22T10:30:10;100771.56;;;13.99;100.00
43436;BME280;36399;51.444;-2.018;2023-07-22T10:32:39;100775.97;;;14.01;100.00
43436;BME280;36399;51.444;-2.018;2023-07-22T10:35:10;100781.31;;;14.10;100.00
43436;BME280;36399;51.444;-2.018;2023-07-22T10:37:37;100749.63;;;14.07;100.00
43436;BME280;36399;51.444;-2.018;2023-07-22T10:40:26;100788.28;;;14.01;100.00
43436;BME280;36399;51.444;-2.018;2023-07-22T10:43:06;100784.75;;;13.96;100.00
43436;BME280;36399;51.444;-2.018;2023-07-22T10:45:34;100792.66;;;13.93;100.00
43436;BME280;36399;51.444;-2.018;2023-07-22T10:48:09;100794.41;;;13.90;100.00
43436;BME280;36399;51.444;-2.018;2023-07-22T10:50:46;100790.00;;;13.91;100.00
43436;BME280;36399;51.444;-2.018;2023-07-22T10:56:04;100780.31;;;13.85;100.00
43436;BME280;36399;51.444;-2.018;2023-07-22T10:58:32;100783.81;;;13.84;100.00
43436;BME280;36399;51.444;-2.018;2023-07-22T11:04:24;100757.34;;;13.63;100.00
43436;BME280;36399;51.444;-2.018;2023-07-22T11:07:03;100750.28;;;13.62;100.00
43436;BME280;36399;51.444;-2.018;2023-07-22T11:12:24;100745.00;;;13.59;100.00
43436;BME280;36399;51.444;-2.018;2023-07-22T11:14:52;100736.22;;;13.58;100.00
43436;BME280;36399;51.444;-2.018;2023-07-22T11:17:28;100737.13;;;13.67;100.00
43436;BME280;36399;51.444;-2.018;2023-07-22T11:19:56;100734.50;;;13.71;100.00
43436;BME280;36399;51.444;-2.018;2023-07-22T11:22:22;100723.97;;;13.80;100.00
43436;BME280;36399;51.444;-2.018;2023-07-22T11:24:48;100717.84;;;13.90;100.00
43436;BME280;36399;51.444;-2.018;2023-07-22T11:27:15;100715.19;;;13.84;100.00
43436;BME280;36399;51.444;-2.018;2023-07-22T11:29:41;100715.22;;;13.97;100.00
43436;BME280;36399;51.444;-2.018;2023-07-22T11:32:15;100715.22;;;13.95;100.00
43436;BME280;36399;51.444;-2.018;2023-07-22T11:34:42;100711.69;;;13.88;100.00
43436;BME280;36399;51.444;-2.018;2023-07-22T11:37:10;100716.97;;;13.88;100.00
43436;BME280;36399;51.444;-2.018;2023-07-22T11:39:36;100711.69;;;13.88;100.00
43436;BME280;36399;51.444;-2.018;2023-07-22T11:42:03;100713.47;;;13.96;100.00
43436;BME280;36399;51.444;-2.018;2023-07-22T11:44:30;100720.53;;;14.03;100.00
43436;BME280;36399;51.444;-2.018;2023-07-22T11:46:57;100720.53;;;14.03;100.00
43436;BME280;36399;51.444;-2.018;2023-07-22T11:52:20;100711.81;;;14.20;100.00
43436;BME280;36399;51.444;-2.018;2023-07-22T11:54:46;100719.75;;;14.42;100.00
43436;BME280;36399;51.444;-2.018;2023-07-22T11:57:16;100714.50;;;14.48;100.00
43436;BME280;36399;51.444;-2.018;2023-07-22T11:59:50;100704.81;;;14.51;100.00
43436;BME280;36399;51.444;-2.018;2023-07-22T12:02:21;100705.69;;;14.53;100.00
43436;BME280;36399;51.444;-2.018;2023-07-22T12:05:03;100701.28;;;14.56;100.00
43436;BME280;36399;51.444;-2.018;2023-07-22T12:07:35;100691.56;;;14.41;100.00
43436;BME280;36399;51.444;-2.018;2023-07-22T12:10:04;100696.00;;;14.52;100.00
43436;BME280;36399;51.444;-2.018;2023-07-22T12:12:35;100692.47;;;14.57;100.00
43436;BME280;36399;51.444;-2.018;2023-07-22T12:15:12;100683.72;;;14.58;100.00
43436;BME280;36399;51.444;-2.018;2023-07-22T12:20:18;100675.75;;;14.56;100.00
43436;BME280;36399;51.444;-2.018;2023-07-22T12:22:45;100681.94;;;14.69;100.00
43436;BME280;36399;51.444;-2.018;2023-07-22T12:25:11;100663.44;;;14.70;100.00
43436;BME280;36399;51.444;-2.018;2023-07-22T12:27:37;100673.97;;;14.93;100.00
43436;BME280;36399;51.444;-2.018;2023-07-22T12:30:04;100664.28;;;15.13;100.00
43436;BME280;36399;51.444;-2.018;2023-07-22T12:32:31;100673.94;;;15.18;100.00
43436;BME280;36399;51.444;-2.018;2023-07-22T12:34:57;100639.59;;;14.99;100.00
43436;BME280;36399;51.444;-2.018;2023-07-22T12:37:23;100649.31;;;14.90;100.00
43436;BME280;36399;51.444;-2.018;2023-07-22T12:39:49;100650.16;;;15.02;100.00
43436;BME280;36399;51.444;-2.018;2023-07-22T12:42:15;100649.28;;;15.06;100.00
43436;BME280;36399;51.444;-2.018;2023-07-22T12:44:41;100644.88;;;15.02;100.00
43436;BME280;36399;51.444;-2.018;2023-07-22T12:47:07;100643.09;;;15.17;100.00
43436;BME280;36399;51.444;-2.018;2023-07-22T12:49:33;100648.34;;;15.26;100.00